createdAt,value
2019-04-10T00:09:14.787Z,0.01
2019-04-10T00:19:14.866Z,0.08
2019-04-10T00:29:14.173Z,0.13
2019-04-10T00:39:14.700Z,0.02
2019-04-10T00:49:14.114Z,0.02
2019-04-10T00:59:14.298Z,0.08
2019-04-10T01:09:14.074Z,0.07
2019-04-10T01:19:15.435Z,0.06
2019-04-10T01:29:15.476Z,0.25
2019-04-10T01:39:14.104Z,0.36
2019-04-10T01:49:14.079Z,0.37
2019-04-10T01:59:14.058Z,0.21
2019-04-10T02:09:14.995Z,0.44
2019-04-10T02:19:14.310Z,0.27
2019-04-10T02:29:15.524Z,0.35
2019-04-10T02:39:20.599Z,0.24
2019-04-10T02:49:14.413Z,0.04
2019-04-10T02:59:15.469Z,0.01
2019-04-10T03:09:28.942Z,0.08
2019-04-10T03:19:14.042Z,0.15
2019-04-10T03:29:14.105Z,0.14
2019-04-10T03:39:15.256Z,0.23
2019-04-10T03:49:14.070Z,0.15
2019-04-10T03:59:14.081Z,0.10
2019-04-10T04:09:14.784Z,0.08
2019-04-10T04:19:14.135Z,0.12
2019-04-10T04:29:14.388Z,0.03
2019-04-10T04:39:21.608Z,0.14
2019-04-10T04:49:14.075Z,0.18
2019-04-10T04:59:14.243Z,0.27
2019-04-10T05:09:25.989Z,0.24
2019-04-10T05:19:14.346Z,0.11
2019-04-10T05:29:15.294Z,0.51
2019-04-10T05:39:14.705Z,0.33
2019-04-10T05:49:15.008Z,0.45
2019-04-10T05:59:14.701Z,0.30
2019-04-10T06:09:14.360Z,0.49
2019-04-10T06:19:14.193Z,0.60
2019-04-10T06:29:14.965Z,0.72
2019-04-10T06:39:14.031Z,0.58
2019-04-10T06:49:14.475Z,0.69
2019-04-10T06:59:14.217Z,0.94
2019-04-10T07:09:14.324Z,0.89
2019-04-10T07:19:14.138Z,1.12
2019-04-10T07:29:18.718Z,1.28
2019-04-10T07:39:15.115Z,1.25
2019-04-10T07:49:17.660Z,0.81
2019-04-10T07:59:14.103Z,1.04
2019-04-10T08:09:14.754Z,0.88
2019-04-10T08:19:14.612Z,1.15
2019-04-10T08:29:14.280Z,1.00
2019-04-10T08:39:27.722Z,1.21
2019-04-10T08:49:14.920Z,1.53
2019-04-10T08:59:14.219Z,1.79
2019-04-10T09:09:15.328Z,1.61
2019-04-10T09:19:16.125Z,1.51
2019-04-10T09:38:18.844Z,2.12
2019-04-10T09:48:20.139Z,1.38
2019-04-10T09:58:18.401Z,1.20
2019-04-10T10:08:19.051Z,2.21
2019-04-10T10:18:19.255Z,1.65
2019-04-10T10:28:20.688Z,1.55
2019-04-10T10:38:19.018Z,1.94
2019-04-10T10:48:19.951Z,2.40
2019-04-10T10:58:19.684Z,1.58
2019-04-10T11:08:19.147Z,2.76
2019-04-10T11:18:18.322Z,1.73
2019-04-10T11:28:18.784Z,2.10
2019-04-10T11:38:19.206Z,1.47
2019-04-10T11:48:23.009Z,1.94
2019-04-10T11:58:18.240Z,1.93
2019-04-10T12:08:44.842Z,2.06
2019-04-10T12:18:18.942Z,1.65
2019-04-10T12:28:20.053Z,1.39
2019-04-10T12:38:19.312Z,1.61
2019-04-10T12:48:18.748Z,1.32
2019-04-10T13:08:31.127Z,2.10
2019-04-10T13:18:30.125Z,1.58
2019-04-10T13:28:25.808Z,1.80
2019-04-10T13:38:29.255Z,1.74
2019-04-10T13:48:26.034Z,1.57
2019-04-10T13:58:27.500Z,1.42
2019-04-10T14:08:40.622Z,1.70
2019-04-10T14:18:27.021Z,1.38
2019-04-10T14:28:27.099Z,1.85
2019-04-10T14:38:27.394Z,1.48
2019-04-10T14:48:25.770Z,1.21
2019-04-10T14:58:28.974Z,1.30
2019-04-10T15:08:26.013Z,1.26
2019-04-10T15:18:26.866Z,1.56
2019-04-10T15:28:27.461Z,1.42
2019-04-10T15:38:28.431Z,1.49
2019-04-10T16:12:21.262Z,1.62
2019-04-10T16:22:21.332Z,1.18
2019-04-10T16:32:21.720Z,1.66
2019-04-10T16:45:40.587Z,1.45
2019-04-10T16:55:41.009Z,1.41
2019-04-10T17:05:41.862Z,1.70
2019-04-10T17:15:41.810Z,1.82
2019-04-10T17:25:40.613Z,1.11
2019-04-10T17:35:40.681Z,1.48
2019-04-10T17:45:40.758Z,1.09
2019-04-10T17:55:41.888Z,1.17
2019-04-10T18:05:40.570Z,1.04
2019-04-10T18:15:40.980Z,1.06
2019-04-10T18:25:40.733Z,1.36
2019-04-10T18:35:40.766Z,1.13
2019-04-10T18:45:42.090Z,0.80
2019-04-10T18:55:40.753Z,0.63
2019-04-10T19:05:40.694Z,1.43
2019-04-10T19:15:41.684Z,0.80
2019-04-10T19:25:40.878Z,0.90
2019-04-10T19:35:41.368Z,0.76
2019-04-10T19:45:41.787Z,0.73
2019-04-10T19:55:40.620Z,0.76
2019-04-10T20:05:41.515Z,0.58
2019-04-10T20:15:40.619Z,0.45
2019-04-10T20:25:46.234Z,0.48
2019-04-10T20:35:40.586Z,0.41
2019-04-10T20:45:40.633Z,0.63
2019-04-10T20:55:41.837Z,0.55
2019-04-10T21:05:40.606Z,0.61
2019-04-10T21:15:40.665Z,0.49
2019-04-10T21:25:41.573Z,0.44
2019-04-10T21:35:41.503Z,0.33
2019-04-10T21:45:41.310Z,0.28
2019-04-10T21:55:41.673Z,0.19
2019-04-10T22:05:40.973Z,0.07
2019-04-10T22:15:41.446Z,0.10
2019-04-10T22:25:40.564Z,0.07
2019-04-10T22:35:40.547Z,0.04
2019-04-10T22:45:40.547Z,0.00
2019-04-10T22:55:40.578Z,0.12
2019-04-10T23:05:40.683Z,0.11
2019-04-10T23:15:41.769Z,0.04
2019-04-10T23:25:40.637Z,0.01
2019-04-10T23:35:41.284Z,0.04
2019-04-10T23:45:40.577Z,0.03
2019-04-10T23:55:40.564Z,0.00
